createdAt,value
2022-12-19T00:00:44.860Z,99.99
2022-12-19T00:01:45.394Z,99.99
2022-12-19T00:02:46.508Z,99.99
2022-12-19T00:03:46.720Z,99.99
2022-12-19T00:04:47.157Z,99.99
2022-12-19T00:05:48.359Z,99.99
2022-12-19T00:06:49.511Z,99.99
2022-12-19T00:07:49.415Z,99.99
2022-12-19T00:08:49.602Z,99.99
2022-12-19T00:09:49.782Z,99.99
2022-12-19T00:10:53.305Z,99.99
2022-12-19T00:11:51.314Z,99.99
2022-12-19T00:12:52.396Z,99.99
2022-12-19T00:13:52.581Z,99.99
2022-12-19T00:14:52.776Z,99.99
2022-12-19T00:15:53.515Z,99.99
2022-12-19T00:16:53.718Z,99.99
2022-12-19T00:17:53.918Z,99.99
2022-12-19T00:18:55.330Z,99.99
2022-12-19T00:19:54.706Z,99.99
2022-12-19T00:20:55.320Z,99.99
2022-12-19T00:21:55.932Z,99.99
2022-12-19T00:22:56.529Z,99.99
2022-12-19T00:23:56.435Z,99.99
2022-12-19T00:24:57.504Z,99.99
2022-12-19T00:25:59.285Z,99.99
2022-12-19T00:26:58.661Z,99.99
2022-12-19T00:27:59.302Z,99.99
2022-12-19T00:29:02.145Z,99.99
2022-12-19T00:30:01.600Z,99.99
2022-12-19T00:31:02.027Z,99.99
2022-12-19T00:32:02.190Z,99.99
2022-12-19T00:33:03.109Z,99.99
2022-12-19T00:34:03.693Z,99.99
2022-12-19T00:35:06.826Z,99.99
2022-12-19T00:36:05.740Z,99.99
2022-12-19T00:37:06.739Z,99.99
2022-12-19T00:38:07.216Z,99.99
2022-12-19T00:39:13.463Z,99.99
2022-12-19T00:40:08.366Z,99.99
2022-12-19T00:41:08.974Z,99.99
2022-12-19T00:42:10.001Z,99.99
2022-12-19T00:43:10.135Z,99.99
2022-12-19T00:44:12.249Z,99.99
2022-12-19T00:45:11.152Z,99.99
2022-12-19T00:46:11.945Z,99.99
2022-12-19T00:47:12.166Z,99.99
2022-12-19T00:48:13.581Z,99.99
2022-12-19T00:49:12.274Z,99.99
2022-12-19T00:50:13.272Z,99.99
2022-12-19T00:51:14.188Z,99.99
2022-12-19T00:52:14.375Z,99.99
2022-12-19T00:53:14.954Z,99.99
2022-12-19T00:54:15.052Z,99.99
2022-12-19T00:55:23.691Z,99.99
2022-12-19T00:56:15.432Z,99.99
2022-12-19T00:57:16.169Z,99.99
2022-12-19T00:58:17.051Z,99.99
2022-12-19T00:59:18.096Z,99.99
2022-12-19T01:00:17.900Z,99.99
2022-12-19T01:01:19.053Z,99.99
2022-12-19T01:02:19.668Z,99.99
2022-12-19T01:03:20.445Z,99.99
2022-12-19T01:04:41.663Z,99.99
2022-12-19T01:05:21.374Z,99.99
2022-12-19T01:06:22.432Z,99.99
2022-12-19T01:07:22.711Z,99.99
2022-12-19T01:08:24.593Z,99.99
2022-12-19T01:09:24.822Z,99.99
2022-12-19T01:10:25.456Z,99.99
2022-12-19T01:11:25.367Z,99.99
2022-12-19T01:12:30.122Z,99.99
2022-12-19T01:13:26.517Z,99.99
2022-12-19T01:14:28.815Z,99.99
2022-12-19T01:15:28.300Z,99.99
2022-12-19T01:16:29.428Z,99.99
2022-12-19T01:17:29.613Z,99.99
2022-12-19T01:18:30.959Z,99.99
2022-12-19T01:19:31.448Z,99.99
2022-12-19T01:20:35.064Z,99.99
2022-12-19T01:21:31.806Z,99.99
2022-12-19T01:22:32.062Z,99.99
2022-12-19T01:23:32.863Z,99.99
2022-12-19T01:24:33.455Z,99.99
2022-12-19T01:25:34.662Z,99.99
2022-12-19T01:26:35.203Z,99.99
2022-12-19T01:27:35.804Z,99.99
2022-12-19T01:28:35.980Z,99.99
2022-12-19T01:29:39.973Z,99.99
2022-12-19T01:30:37.660Z,99.99
2022-12-19T01:31:37.276Z,99.99
2022-12-19T01:32:39.648Z,99.99
2022-12-19T01:33:38.264Z,99.99
2022-12-19T01:34:39.000Z,99.99
2022-12-19T01:35:39.611Z,99.99
2022-12-19T01:36:44.942Z,99.99
2022-12-19T01:37:41.266Z,99.99
2022-12-19T01:38:42.161Z,99.99
2022-12-19T01:39:44.931Z,99.99
2022-12-19T01:40:43.050Z,99.99
2022-12-19T01:41:44.090Z,99.99
2022-12-19T01:42:44.815Z,99.99
2022-12-19T01:43:46.244Z,99.99
2022-12-19T01:44:45.166Z,99.99
2022-12-19T01:45:51.127Z,99.99
2022-12-19T01:46:46.227Z,99.99
2022-12-19T01:47:46.262Z,99.99
2022-12-19T01:48:46.574Z,99.99
2022-12-19T01:49:47.487Z,99.99
2022-12-19T01:51:06.559Z,99.99
2022-12-19T01:51:48.853Z,99.99
2022-12-19T01:52:48.761Z,99.99
2022-12-19T01:53:54.127Z,99.99
2022-12-19T01:54:49.738Z,99.99
2022-12-19T01:55:49.602Z,99.99
2022-12-19T01:56:50.485Z,99.99
2022-12-19T01:57:50.805Z,99.99
2022-12-19T01:58:50.721Z,99.99
2022-12-19T01:59:51.383Z,99.99
2022-12-19T02:00:51.581Z,99.99
2022-12-19T02:01:57.107Z,99.99
2022-12-19T02:02:52.973Z,99.99
2022-12-19T02:03:53.056Z,99.99
2022-12-19T02:04:54.099Z,99.99
2022-12-19T02:05:55.012Z,99.99
2022-12-19T02:06:55.506Z,99.99
2022-12-19T02:07:56.352Z,99.99
2022-12-19T02:08:56.851Z,99.99
2022-12-19T02:10:02.839Z,99.99
2022-12-19T02:10:57.186Z,99.99
2022-12-19T02:11:57.701Z,99.99
2022-12-19T02:12:58.025Z,99.99
2022-12-19T02:13:58.560Z,99.99
2022-12-19T02:15:02.922Z,99.99
2022-12-19T02:15:59.779Z,99.99
2022-12-19T02:17:00.339Z,99.99
2022-12-19T02:17:59.972Z,99.99
2022-12-19T02:19:01.295Z,99.99
2022-12-19T02:20:01.236Z,99.99
2022-12-19T02:21:01.436Z,99.99
2022-12-19T02:22:01.925Z,99.99
2022-12-19T02:23:02.367Z,99.99
2022-12-19T02:24:02.755Z,99.99
2022-12-19T02:25:04.034Z,99.99
2022-12-19T02:26:04.950Z,99.99
2022-12-19T02:27:04.859Z,99.99
2022-12-19T02:28:06.061Z,99.99
2022-12-19T02:29:07.177Z,99.99
2022-12-19T02:30:07.300Z,99.99
2022-12-19T02:31:13.835Z,99.99
2022-12-19T02:32:08.022Z,99.99
2022-12-19T02:33:08.344Z,99.99
2022-12-19T02:34:09.436Z,99.99
2022-12-19T02:35:09.784Z,99.99
2022-12-19T02:36:10.836Z,99.99
2022-12-19T02:37:12.697Z,99.99
2022-12-19T02:38:15.915Z,99.99
2022-12-19T02:39:12.843Z,99.99
2022-12-19T02:40:12.754Z,99.99
2022-12-19T02:41:13.672Z,99.99
2022-12-19T02:42:15.946Z,99.99
2022-12-19T02:43:14.055Z,99.99
2022-12-19T02:44:14.682Z,99.99
2022-12-19T02:45:15.637Z,99.99
2022-12-19T02:46:16.453Z,99.99
2022-12-19T02:47:17.655Z,99.99
2022-12-19T02:48:24.551Z,99.99
2022-12-19T02:49:30.482Z,99.99
2022-12-19T02:50:19.705Z,99.99
2022-12-19T02:51:20.889Z,99.99
2022-12-19T02:52:20.813Z,99.99
2022-12-19T02:53:24.254Z,99.99
2022-12-19T02:54:22.403Z,99.99
2022-12-19T02:55:23.418Z,99.99
2022-12-19T02:56:23.619Z,99.99
2022-12-19T02:57:23.842Z,99.99
2022-12-19T02:58:23.769Z,99.99
2022-12-19T02:59:24.985Z,99.99
2022-12-19T03:00:25.617Z,99.99
2022-12-19T03:01:26.977Z,99.99
2022-12-19T03:02:27.504Z,99.99
2022-12-19T03:03:27.412Z,99.99
2022-12-19T03:04:28.376Z,99.99
2022-12-19T03:05:28.868Z,99.99
2022-12-19T03:06:29.219Z,99.99
2022-12-19T03:07:29.351Z,99.99
2022-12-19T03:08:29.707Z,99.99
2022-12-19T03:09:31.334Z,99.99
2022-12-19T03:10:31.548Z,99.99
2022-12-19T03:11:31.755Z,99.99
2022-12-19T03:12:32.246Z,99.99
2022-12-19T03:13:33.012Z,99.99
2022-12-19T03:14:34.156Z,99.99
2022-12-19T03:15:34.069Z,99.99
2022-12-19T03:16:35.296Z,99.99
2022-12-19T03:17:35.497Z,99.99
2022-12-19T03:18:35.837Z,99.99
2022-12-19T03:19:36.442Z,99.99
2022-12-19T03:20:36.787Z,99.99
2022-12-19T03:21:37.826Z,99.99
2022-12-19T03:22:38.372Z,99.99
2022-12-19T03:23:38.978Z,99.99
2022-12-19T03:24:39.832Z,99.99
2022-12-19T03:25:40.654Z,99.99
2022-12-19T03:26:41.838Z,99.99
2022-12-19T03:27:42.360Z,99.99
2022-12-19T03:28:43.559Z,99.99
2022-12-19T03:29:44.040Z,99.99
2022-12-19T03:30:45.049Z,99.99
2022-12-19T03:31:45.504Z,99.99
2022-12-19T03:32:46.531Z,99.99
2022-12-19T03:33:47.029Z,99.99
2022-12-19T03:34:47.871Z,99.99
2022-12-19T03:35:48.317Z,99.99
2022-12-19T03:36:49.423Z,99.99
2022-12-19T03:37:49.645Z,99.99
2022-12-19T03:38:50.979Z,99.99
2022-12-19T03:39:51.542Z,99.99
2022-12-19T03:40:51.871Z,99.99
2022-12-19T03:41:52.416Z,99.99
2022-12-19T03:42:53.142Z,99.99
2022-12-19T03:43:54.115Z,99.99
2022-12-19T03:44:54.264Z,99.99
2022-12-19T03:45:55.495Z,99.99
2022-12-19T03:46:56.329Z,99.99
2022-12-19T03:47:57.595Z,99.99
2022-12-19T03:48:57.811Z,99.99
2022-12-19T03:49:58.580Z,99.99
2022-12-19T03:50:59.079Z,99.99
2022-12-19T03:52:04.782Z,99.99
2022-12-19T03:53:00.016Z,99.99
2022-12-19T03:54:00.349Z,99.99
2022-12-19T03:55:01.361Z,99.99
2022-12-19T03:56:01.572Z,99.99
2022-12-19T03:57:02.503Z,99.99
2022-12-19T03:58:02.976Z,99.99
2022-12-19T03:59:03.245Z,99.99
2022-12-19T04:00:04.170Z,99.99
2022-12-19T04:01:04.468Z,99.99
2022-12-19T04:02:05.184Z,99.99
2022-12-19T04:03:06.042Z,99.99
2022-12-19T04:04:06.580Z,99.99
2022-12-19T04:05:06.817Z,99.99
2022-12-19T04:06:07.308Z,99.99
2022-12-19T04:07:07.552Z,99.99
2022-12-19T04:08:08.028Z,99.99
2022-12-19T04:09:08.378Z,99.99
2022-12-19T04:10:08.979Z,99.99
2022-12-19T04:11:09.337Z,99.99
2022-12-19T04:12:09.903Z,99.99
2022-12-19T04:13:10.099Z,99.99
2022-12-19T04:14:10.615Z,99.99
2022-12-19T04:15:10.823Z,99.99
2022-12-19T04:16:11.991Z,99.99
2022-12-19T04:17:12.559Z,99.99
2022-12-19T04:18:13.357Z,99.99
2022-12-19T04:19:12.978Z,99.99
2022-12-19T04:20:14.020Z,99.99
2022-12-19T04:21:14.631Z,99.99
2022-12-19T04:22:14.671Z,99.99
2022-12-19T04:23:15.909Z,99.99
2022-12-19T04:24:15.974Z,99.99
2022-12-19T04:25:16.090Z,99.99
2022-12-19T04:26:16.725Z,99.99
2022-12-19T04:27:17.654Z,99.99
2022-12-19T04:28:18.153Z,99.99
2022-12-19T04:29:19.191Z,99.99
2022-12-19T04:30:19.395Z,99.99
2022-12-19T04:31:20.249Z,99.99
2022-12-19T04:32:20.632Z,99.99
2022-12-19T04:33:20.952Z,99.99
2022-12-19T04:34:21.565Z,99.99
2022-12-19T04:35:22.498Z,99.99
2022-12-19T04:36:23.414Z,99.99
2022-12-19T04:37:24.015Z,99.99
2022-12-19T04:38:23.918Z,99.99
2022-12-19T04:39:24.977Z,99.99
2022-12-19T04:40:26.047Z,99.99
2022-12-19T04:41:26.922Z,99.99
2022-12-19T04:42:27.839Z,99.99
2022-12-19T04:43:28.752Z,99.99
2022-12-19T04:44:28.691Z,99.99
2022-12-19T04:45:29.122Z,99.99
2022-12-19T04:46:29.669Z,99.99
2022-12-19T04:47:29.570Z,99.99
2022-12-19T04:48:31.064Z,99.99
2022-12-19T04:49:31.353Z,99.99
2022-12-19T04:50:31.663Z,99.99
2022-12-19T04:51:32.204Z,99.99
2022-12-19T04:52:32.944Z,99.99
2022-12-19T04:53:34.164Z,99.99
2022-12-19T04:54:34.660Z,99.99
2022-12-19T04:55:35.065Z,99.99
2022-12-19T04:56:35.723Z,99.99
2022-12-19T04:57:35.926Z,99.99
2022-12-19T04:58:36.158Z,99.99
2022-12-19T04:59:36.485Z,99.99
2022-12-19T05:00:36.399Z,99.99
2022-12-19T05:01:37.643Z,99.99
2022-12-19T05:02:38.581Z,99.99
2022-12-19T05:03:39.370Z,99.99
2022-12-19T05:04:39.849Z,99.99
2022-12-19T05:05:40.107Z,99.99
2022-12-19T05:06:41.457Z,99.99
2022-12-19T05:07:42.065Z,99.99
2022-12-19T05:08:42.557Z,99.99
2022-12-19T05:09:42.885Z,99.99
2022-12-19T05:10:43.503Z,99.99
2022-12-19T05:11:44.389Z,99.99
2022-12-19T05:12:45.322Z,99.99
2022-12-19T05:13:45.242Z,99.99
2022-12-19T05:14:46.019Z,99.99
2022-12-19T05:15:46.626Z,99.99
2022-12-19T05:16:46.986Z,99.99
2022-12-19T05:17:47.397Z,99.99
2022-12-19T05:18:47.714Z,99.99
2022-12-19T05:19:48.324Z,99.99
2022-12-19T05:20:49.120Z,99.99
2022-12-19T05:21:49.016Z,99.99
2022-12-19T05:22:50.078Z,99.99
2022-12-19T05:23:51.088Z,99.99
2022-12-19T05:24:51.689Z,99.99
2022-12-19T05:25:52.147Z,99.99
2022-12-19T05:26:52.777Z,99.99
2022-12-19T05:27:52.991Z,99.99
2022-12-19T05:28:53.182Z,99.99
2022-12-19T05:29:53.799Z,99.99
2022-12-19T05:30:57.943Z,99.99
2022-12-19T05:31:54.579Z,99.99
2022-12-19T05:32:54.801Z,99.99
2022-12-19T05:33:55.401Z,99.99
2022-12-19T05:34:55.604Z,99.99
2022-12-19T05:35:56.336Z,99.99
2022-12-19T05:36:56.862Z,99.99
2022-12-19T05:37:57.763Z,99.99
2022-12-19T05:38:58.396Z,99.99
2022-12-19T05:39:59.031Z,99.99
2022-12-19T05:40:59.395Z,99.99
2022-12-19T05:42:00.602Z,99.99
2022-12-19T05:43:01.284Z,99.99
2022-12-19T05:44:01.844Z,99.99
2022-12-19T05:45:02.621Z,99.99
2022-12-19T05:46:03.344Z,99.99
2022-12-19T05:47:03.759Z,99.99
2022-12-19T05:48:06.644Z,99.99
2022-12-19T05:49:04.732Z,99.99
2022-12-19T05:50:04.974Z,99.99
2022-12-19T05:51:06.046Z,99.99
2022-12-19T05:52:06.305Z,99.99
2022-12-19T05:53:07.254Z,99.99
2022-12-19T05:54:07.425Z,99.99
2022-12-19T05:55:07.755Z,99.99
2022-12-19T05:56:08.906Z,99.99
2022-12-19T05:57:10.003Z,99.99
2022-12-19T05:58:10.652Z,99.99
2022-12-19T05:59:11.586Z,99.99
2022-12-19T06:00:11.899Z,99.99
2022-12-19T06:01:12.801Z,99.99
2022-12-19T06:02:13.361Z,99.99
2022-12-19T06:03:13.832Z,99.99
2022-12-19T06:04:14.249Z,99.99
2022-12-19T06:05:14.408Z,99.99
2022-12-19T06:06:14.968Z,99.99
2022-12-19T06:07:20.681Z,99.99
2022-12-19T06:08:16.521Z,99.99
2022-12-19T06:09:17.026Z,99.99
2022-12-19T06:10:17.752Z,99.99
2022-12-19T06:11:17.994Z,99.99
2022-12-19T06:12:18.497Z,99.99
2022-12-19T06:13:23.560Z,99.99
2022-12-19T06:14:20.084Z,99.99
2022-12-19T06:15:21.119Z,99.99
2022-12-19T06:16:22.198Z,99.99
2022-12-19T06:17:22.937Z,99.99
2022-12-19T06:18:23.143Z,99.99
2022-12-19T06:19:24.339Z,99.99
2022-12-19T06:20:24.382Z,99.99
2022-12-19T06:21:25.136Z,99.99
2022-12-19T06:22:26.059Z,99.99
2022-12-19T06:23:27.363Z,99.99
2022-12-19T06:24:27.299Z,99.99
2022-12-19T06:25:28.068Z,99.99
2022-12-19T06:26:28.724Z,99.99
2022-12-19T06:27:29.649Z,99.99
2022-12-19T06:28:29.855Z,99.99
2022-12-19T06:29:30.748Z,99.99
2022-12-19T06:30:31.245Z,99.99
2022-12-19T06:31:32.101Z,99.99
2022-12-19T06:32:37.657Z,99.99
2022-12-19T06:33:32.717Z,99.99
2022-12-19T06:35:08.318Z,99.99
2022-12-19T06:35:33.534Z,99.99
2022-12-19T06:36:33.400Z,99.99
2022-12-19T06:37:36.846Z,99.99
2022-12-19T06:38:35.589Z,99.99
2022-12-19T06:39:36.502Z,99.99
2022-12-19T06:40:37.146Z,99.99
2022-12-19T06:41:38.103Z,99.99
2022-12-19T06:42:38.618Z,99.99
2022-12-19T06:43:38.823Z,99.99
2022-12-19T06:44:39.005Z,99.99
2022-12-19T06:45:40.216Z,99.99
2022-12-19T06:46:40.556Z,99.99
2022-12-19T06:47:41.265Z,99.99
2022-12-19T06:48:41.651Z,99.99
2022-12-19T06:49:42.745Z,99.99
2022-12-19T06:50:43.657Z,99.99
2022-12-19T06:51:44.726Z,99.99
2022-12-19T06:52:45.179Z,99.99
2022-12-19T06:53:45.741Z,99.99
2022-12-19T06:54:46.670Z,99.99
2022-12-19T06:55:46.764Z,99.99
2022-12-19T06:56:47.884Z,99.99
2022-12-19T06:57:48.072Z,99.99
2022-12-19T06:58:48.389Z,99.99
2022-12-19T06:59:48.602Z,99.99
2022-12-19T07:00:48.997Z,99.99
2022-12-19T07:01:50.077Z,99.99
2022-12-19T07:02:49.732Z,99.99
2022-12-19T07:03:50.551Z,99.99
2022-12-19T07:04:51.655Z,99.99
2022-12-19T07:05:52.153Z,99.99
2022-12-19T07:06:54.829Z,99.99
2022-12-19T07:07:53.313Z,99.99
2022-12-19T07:08:53.635Z,99.99
2022-12-19T07:09:53.989Z,99.99
2022-12-19T07:10:55.405Z,99.99
2022-12-19T07:11:56.099Z,99.99
2022-12-19T07:12:56.038Z,99.99
2022-12-19T07:13:56.238Z,99.99
2022-12-19T07:14:59.223Z,99.99
2022-12-19T07:15:57.366Z,99.99
2022-12-19T07:16:57.663Z,99.99
2022-12-19T07:17:58.298Z,99.99
2022-12-19T07:18:58.211Z,99.99
2022-12-19T07:19:59.403Z,99.99
2022-12-19T07:20:59.621Z,99.99
2022-12-19T07:21:59.964Z,99.99
2022-12-19T07:23:01.231Z,99.99
2022-12-19T07:24:01.581Z,99.99
2022-12-19T07:25:01.927Z,99.99
2022-12-19T07:26:02.526Z,99.99
2022-12-19T07:27:03.422Z,99.99
2022-12-19T07:28:03.913Z,99.99
2022-12-19T07:29:04.120Z,99.99
2022-12-19T07:30:04.930Z,99.99
2022-12-19T07:31:05.258Z,99.99
2022-12-19T07:32:06.498Z,99.99
2022-12-19T07:33:09.907Z,99.99
2022-12-19T07:34:07.900Z,99.99
2022-12-19T07:35:09.141Z,99.99
2022-12-19T07:36:09.555Z,99.99
2022-12-19T07:37:10.416Z,99.99
2022-12-19T07:38:11.453Z,99.99
2022-12-19T07:39:11.802Z,99.99
2022-12-19T07:40:12.736Z,99.99
2022-12-19T07:41:12.780Z,99.99
2022-12-19T07:42:14.006Z,99.99
2022-12-19T07:43:14.198Z,99.99
2022-12-19T07:44:15.304Z,99.99
2022-12-19T07:45:15.807Z,99.99
2022-12-19T07:46:16.571Z,99.99
2022-12-19T07:47:17.177Z,99.99
2022-12-19T07:48:17.408Z,99.99
2022-12-19T07:49:22.395Z,99.99
2022-12-19T07:50:18.291Z,99.99
2022-12-19T07:51:18.939Z,99.99
2022-12-19T07:52:19.141Z,99.99
2022-12-19T07:53:19.883Z,99.99
2022-12-19T07:54:20.921Z,99.99
2022-12-19T07:55:21.553Z,99.99
2022-12-19T07:56:21.540Z,99.99
2022-12-19T07:57:22.081Z,99.99
2022-12-19T07:58:23.025Z,99.99
2022-12-19T07:59:29.006Z,99.99
2022-12-19T08:00:24.293Z,99.99
2022-12-19T08:01:25.483Z,99.99
2022-12-19T08:02:26.260Z,99.99
2022-12-19T08:03:26.413Z,99.99
2022-12-19T08:04:27.087Z,99.99
2022-12-19T08:05:28.166Z,99.99
2022-12-19T08:06:28.399Z,99.99
2022-12-19T08:07:29.465Z,99.99
2022-12-19T08:08:30.043Z,99.99
2022-12-19T08:09:31.088Z,99.99
2022-12-19T08:10:31.583Z,99.99
2022-12-19T08:11:32.385Z,99.99
2022-12-19T08:12:32.875Z,99.99
2022-12-19T08:13:46.126Z,99.99
2022-12-19T08:14:34.116Z,99.99
2022-12-19T08:15:34.370Z,99.99
2022-12-19T08:16:49.612Z,99.99
2022-12-19T08:18:07.844Z,99.99
2022-12-19T08:19:08.498Z,99.99
2022-12-19T08:20:09.816Z,99.99
2022-12-19T08:21:10.169Z,99.99
2022-12-19T08:22:10.624Z,99.99
2022-12-19T08:23:11.475Z,99.99
2022-12-19T08:24:12.423Z,99.99
2022-12-19T08:25:12.781Z,99.99
2022-12-19T08:26:12.990Z,99.99
2022-12-19T08:27:13.132Z,99.99
2022-12-19T08:28:13.554Z,99.99
2022-12-19T08:29:14.206Z,99.99
2022-12-19T08:30:14.482Z,99.99
2022-12-19T08:31:15.856Z,99.99
2022-12-19T08:32:21.379Z,99.99
2022-12-19T08:33:16.585Z,99.99
2022-12-19T08:34:17.803Z,99.99
2022-12-19T08:35:17.739Z,99.99
2022-12-19T08:36:18.792Z,99.99
2022-12-19T08:37:19.345Z,99.99
2022-12-19T08:38:20.204Z,99.99
2022-12-19T08:39:20.449Z,99.99
2022-12-19T08:40:20.959Z,99.99
2022-12-19T08:41:21.552Z,99.99
2022-12-19T08:42:22.224Z,99.99
2022-12-19T08:43:22.398Z,99.99
2022-12-19T08:44:22.655Z,99.99
2022-12-19T08:45:23.169Z,99.99
2022-12-19T08:46:23.662Z,99.99
2022-12-19T08:47:24.562Z,99.99
2022-12-19T08:48:24.406Z,99.99
2022-12-19T08:49:25.081Z,99.99
2022-12-19T08:50:25.641Z,99.99
2022-12-19T08:51:26.059Z,99.99
2022-12-19T08:52:26.164Z,99.99
2022-12-19T08:53:32.083Z,99.99
2022-12-19T08:54:28.446Z,99.99
2022-12-19T08:55:28.808Z,99.99
2022-12-19T08:56:29.179Z,99.99
2022-12-19T08:57:29.086Z,99.99
2022-12-19T08:58:29.703Z,99.99
2022-12-19T08:59:37.007Z,99.99
2022-12-19T09:00:32.568Z,99.99
2022-12-19T09:01:31.748Z,99.99
2022-12-19T09:02:32.998Z,99.99
2022-12-19T09:04:18.733Z,99.99
2022-12-19T09:06:30.144Z,99.99
2022-12-19T09:07:30.667Z,99.99
2022-12-19T09:08:31.155Z,99.99
2022-12-19T09:09:32.383Z,99.99
2022-12-19T09:10:32.942Z,99.99
2022-12-19T09:11:33.904Z,99.99
2022-12-19T09:12:33.983Z,99.99
2022-12-19T09:13:34.491Z,99.99
2022-12-19T09:14:34.746Z,99.99
2022-12-19T09:15:35.735Z,99.99
2022-12-19T09:16:35.754Z,99.99
2022-12-19T09:17:37.389Z,99.99
2022-12-19T09:18:37.514Z,99.99
2022-12-19T09:19:37.755Z,99.99
2022-12-19T09:20:38.435Z,99.99
2022-12-19T09:21:39.070Z,99.99
2022-12-19T09:22:39.384Z,99.99
2022-12-19T09:23:39.731Z,99.99
2022-12-19T09:24:40.492Z,99.99
2022-12-19T09:25:41.129Z,99.99
2022-12-19T09:26:42.172Z,99.99
2022-12-19T09:28:54.383Z,99.99
2022-12-19T09:29:54.612Z,99.99
2022-12-19T09:30:55.281Z,99.99
2022-12-19T09:32:01.393Z,99.99
2022-12-19T09:32:56.435Z,99.99
2022-12-19T09:33:56.928Z,99.99
2022-12-19T09:34:58.159Z,99.99
2022-12-19T09:36:02.050Z,99.99
2022-12-19T09:36:59.581Z,99.99
2022-12-19T09:38:05.504Z,99.99
2022-12-19T09:39:00.932Z,99.99
2022-12-19T09:40:04.761Z,99.99
2022-12-19T09:41:02.043Z,99.99
2022-12-19T09:42:02.598Z,99.99
2022-12-19T09:43:02.530Z,99.99
2022-12-19T09:44:06.695Z,99.99
2022-12-19T09:45:04.390Z,99.99
2022-12-19T09:46:05.418Z,99.99
2022-12-19T09:47:06.146Z,99.99
2022-12-19T09:48:07.093Z,99.99
2022-12-19T09:49:08.156Z,99.99
2022-12-19T09:50:08.377Z,99.99
2022-12-19T09:51:16.081Z,99.99
2022-12-19T09:52:08.961Z,99.99
2022-12-19T09:53:08.952Z,99.99
2022-12-19T09:54:09.907Z,99.99
2022-12-19T09:55:10.427Z,99.99
2022-12-19T09:56:11.117Z,99.99
2022-12-19T09:57:11.057Z,99.99
2022-12-19T09:58:11.407Z,99.99
2022-12-19T09:59:12.390Z,99.99
2022-12-19T10:00:12.726Z,99.99
2022-12-19T10:01:13.476Z,99.99
2022-12-19T10:02:17.906Z,99.99
2022-12-19T10:03:14.446Z,99.99
2022-12-19T10:04:14.702Z,99.99
2022-12-19T10:06:49.302Z,99.99
2022-12-19T10:08:19.007Z,99.99
2022-12-19T10:12:51.532Z,99.99
2022-12-19T10:13:58.030Z,99.99
2022-12-19T10:14:58.187Z,99.99
2022-12-19T10:16:06.158Z,99.99
2022-12-19T10:17:28.588Z,99.99
2022-12-19T10:17:59.556Z,99.99
2022-12-19T10:19:02.517Z,99.99
2022-12-19T10:20:01.037Z,99.99
2022-12-19T10:21:02.213Z,99.99
2022-12-19T10:22:23.321Z,99.99
2022-12-19T10:23:03.606Z,99.99
2022-12-19T10:24:04.224Z,99.99
2022-12-19T10:25:13.921Z,99.99
2022-12-19T10:26:05.269Z,99.99
2022-12-19T10:27:05.838Z,99.99
2022-12-19T10:28:06.847Z,99.99
2022-12-19T10:29:10.596Z,99.99
2022-12-19T10:30:08.706Z,99.99
2022-12-19T10:31:21.797Z,99.99
2022-12-19T10:32:10.179Z,99.99
2022-12-19T10:33:10.454Z,99.99
2022-12-19T10:34:11.309Z,99.99
2022-12-19T10:35:11.357Z,99.99
2022-12-19T10:36:12.253Z,99.99
2022-12-19T10:37:42.248Z,99.99
2022-12-19T10:38:12.366Z,99.99
2022-12-19T10:39:12.825Z,99.99
2022-12-19T10:40:27.502Z,99.99
2022-12-19T10:41:13.393Z,99.99
2022-12-19T10:42:13.670Z,98.64
2022-12-19T10:43:23.068Z,98.83
2022-12-19T10:44:27.136Z,97.22
2022-12-19T10:45:27.674Z,95.46
2022-12-19T10:46:28.752Z,94.98
2022-12-19T10:47:29.488Z,95.84
2022-12-19T10:48:35.969Z,94.89
2022-12-19T10:49:31.173Z,94.98
2022-12-19T10:50:31.153Z,95.17
2022-12-19T10:51:31.924Z,95.17
2022-12-19T10:52:33.896Z,95.65
2022-12-19T10:53:32.984Z,96.03
2022-12-19T10:54:39.223Z,96.08
2022-12-19T10:55:34.552Z,96.03
2022-12-19T10:56:42.439Z,95.98
2022-12-19T10:57:35.981Z,96.79
2022-12-19T10:58:36.093Z,97.83
2022-12-19T10:59:36.684Z,97.74
2022-12-19T11:00:38.426Z,98.02
2022-12-19T11:01:38.150Z,99.26
2022-12-19T11:02:38.969Z,99.99
2022-12-19T11:03:39.860Z,99.99
2022-12-19T11:04:40.188Z,99.99
2022-12-19T11:05:41.984Z,99.99
2022-12-19T11:06:41.738Z,99.99
2022-12-19T11:07:42.410Z,99.99
2022-12-19T11:08:43.340Z,99.99
2022-12-19T11:09:45.283Z,99.99
2022-12-19T11:33:29.577Z,99.99
2022-12-19T11:34:30.631Z,99.99
2022-12-19T11:35:42.621Z,99.99
2022-12-19T11:36:32.264Z,99.99
2022-12-19T11:37:33.509Z,99.99
2022-12-19T11:38:33.759Z,99.99
2022-12-19T11:39:34.002Z,99.99
2022-12-19T11:40:34.650Z,99.99
2022-12-19T11:41:34.955Z,99.99
2022-12-19T11:42:36.163Z,99.99
2022-12-19T11:43:53.794Z,99.99
2022-12-19T11:44:54.743Z,99.99
2022-12-19T11:45:55.417Z,99.99
2022-12-19T11:46:56.487Z,99.99
2022-12-19T11:47:56.575Z,99.99
2022-12-19T11:48:57.044Z,99.99
2022-12-19T11:49:57.546Z,99.99
2022-12-19T11:50:58.116Z,99.99
2022-12-19T11:51:59.129Z,99.99
2022-12-19T11:53:16.756Z,99.99
2022-12-19T11:54:09.382Z,99.99
2022-12-19T11:55:10.633Z,99.99
2022-12-19T11:56:21.439Z,99.99
2022-12-19T11:57:11.448Z,99.99
2022-12-19T11:58:11.726Z,99.99
2022-12-19T11:59:12.637Z,99.99
2022-12-19T12:00:13.377Z,99.99
2022-12-19T12:01:13.681Z,99.99
2022-12-19T12:02:14.218Z,99.99
2022-12-19T12:03:14.379Z,99.99
2022-12-19T12:04:15.071Z,99.99
2022-12-19T12:05:15.119Z,99.99
2022-12-19T12:06:15.342Z,99.99
2022-12-19T12:09:32.883Z,99.99
2022-12-19T12:38:26.803Z,99.99
2022-12-19T12:39:39.050Z,99.99
2022-12-19T12:40:32.999Z,99.99
2022-12-19T12:41:33.960Z,99.99
2022-12-19T12:42:34.378Z,99.99
2022-12-19T12:43:35.382Z,99.99
2022-12-19T12:44:45.047Z,99.99
2022-12-19T12:45:37.004Z,99.99
2022-12-19T12:46:37.212Z,99.99
2022-12-19T12:47:37.216Z,99.99
2022-12-19T12:48:38.194Z,99.99
2022-12-19T12:49:38.930Z,99.99
2022-12-19T12:50:39.398Z,99.99
2022-12-19T12:51:39.805Z,99.99
2022-12-19T12:52:40.338Z,99.99
2022-12-19T12:53:40.599Z,99.99
2022-12-19T12:54:40.910Z,99.99
2022-12-19T12:55:41.045Z,99.99
2022-12-19T12:56:42.301Z,99.99
2022-12-19T12:57:42.308Z,99.99
2022-12-19T12:58:43.342Z,99.99
2022-12-19T12:59:43.562Z,99.99
2022-12-19T13:00:44.507Z,99.99
2022-12-19T13:01:46.014Z,99.99
2022-12-19T13:02:45.946Z,99.99
2022-12-19T13:03:46.251Z,99.99
2022-12-19T13:04:49.364Z,99.99
2022-12-19T13:05:47.955Z,99.99
2022-12-19T13:06:47.396Z,99.99
2022-12-19T13:07:47.935Z,99.99
2022-12-19T13:08:49.224Z,99.99
2022-12-19T13:09:49.783Z,99.99
2022-12-19T13:10:50.873Z,99.99
2022-12-19T13:11:51.901Z,99.99
2022-12-19T13:12:52.858Z,99.99
2022-12-19T13:13:53.343Z,99.99
2022-12-19T13:14:53.558Z,99.99
2022-12-19T13:15:54.087Z,99.99
2022-12-19T13:16:54.606Z,99.99
2022-12-19T13:17:55.168Z,99.99
2022-12-19T13:18:55.413Z,99.99
2022-12-19T13:19:55.948Z,99.99
2022-12-19T13:20:56.594Z,99.99
2022-12-19T13:21:56.817Z,99.99
2022-12-19T13:22:57.677Z,99.99
2022-12-19T13:23:58.069Z,99.99
2022-12-19T13:24:59.143Z,99.99
2022-12-19T13:25:59.875Z,99.99
2022-12-19T13:27:00.511Z,99.99
2022-12-19T13:28:01.050Z,99.99
2022-12-19T13:29:02.024Z,99.99
2022-12-19T13:30:02.839Z,99.99
2022-12-19T13:31:27.224Z,99.99
2022-12-19T13:32:04.112Z,99.99
2022-12-19T13:33:04.146Z,99.99
2022-12-19T13:34:05.009Z,99.99
2022-12-19T13:39:34.813Z,99.99
2022-12-19T13:40:11.892Z,99.99
2022-12-19T13:41:08.229Z,99.99
2022-12-19T13:42:08.615Z,99.99
2022-12-19T13:43:16.331Z,99.99
2022-12-19T13:44:09.875Z,99.99
2022-12-19T13:45:10.443Z,99.99
2022-12-19T13:46:11.284Z,99.99
2022-12-19T13:47:12.006Z,99.99
2022-12-19T13:48:13.539Z,99.99
2022-12-19T13:49:12.509Z,99.99
2022-12-19T13:50:13.547Z,99.99
2022-12-19T13:51:14.193Z,99.99
2022-12-19T13:52:15.018Z,99.99
2022-12-19T13:53:15.699Z,99.99
2022-12-19T13:54:16.620Z,99.99
2022-12-19T13:55:17.196Z,99.99
2022-12-19T13:56:17.872Z,99.99
2022-12-19T13:57:18.451Z,99.99
2022-12-19T13:58:18.993Z,99.99
2022-12-19T13:59:19.190Z,99.99
2022-12-19T14:00:19.832Z,99.99
2022-12-19T14:01:26.274Z,99.99
2022-12-19T14:02:21.872Z,99.99
2022-12-19T14:03:22.477Z,99.99
2022-12-19T14:04:22.924Z,99.99
2022-12-19T14:06:14.214Z,99.99
2022-12-19T14:06:36.336Z,99.99
2022-12-19T14:07:41.689Z,99.99